Time;durP1;ratioP1;P1;durP2;ratioP2;P2;SDS_P1;SDS_P2;PMS_P1;PMS_P2;Temp;Humidity;BMP_temperature;BMP_pressure;BME280_temperature;BME280_humidity;BME280_pressure;Samples;Min_cycle;Max_cycle;Signal;HPM_P1;HPM_P2
2023/01/18 00:01:17;;;;;;;7.93;4.20;;;4.20;93.00;;;4.73;61.17;95756.00;4967645;28;119646;-75
2023/01/18 00:03:44;;;;;;;4.10;3.40;;;4.20;93.00;;;4.76;61.22;95754.50;4970845;28;123956;-76
2023/01/18 00:06:11;;;;;;;5.50;3.80;;;4.30;93.00;;;4.78;61.67;95755.75;4970044;28;123964;-76
2023/01/18 00:08:39;;;;;;;6.20;4.77;;;4.30;92.90;;;4.81;61.04;95762.47;4968434;28;119381;-75
2023/01/18 00:11:09;;;;;;;6.10;4.17;;;4.30;92.90;;;4.83;60.98;95766.41;4967762;28;118106;-75
2023/01/18 00:13:37;;;;;;;6.43;5.10;;;4.40;92.90;;;4.83;60.97;95763.69;4966929;28;124186;-78
2023/01/18 00:16:06;;;;;;;7.20;3.97;;;4.40;92.80;;;4.84;61.40;95765.28;4965818;28;122797;-75
2023/01/18 00:18:36;;;;;;;5.53;4.20;;;4.30;92.80;;;4.84;61.46;95762.56;4966527;28;118949;-75
2023/01/18 00:21:06;;;;;;;6.20;4.90;;;4.40;92.80;;;4.86;61.08;95765.75;4966434;28;119656;-75
2023/01/18 00:23:33;;;;;;;6.40;5.00;;;4.40;92.80;;;4.87;61.04;95761.84;4967622;28;124629;-77
2023/01/18 00:26:07;;;;;;;7.00;4.67;;;4.50;92.80;;;4.88;60.81;95763.44;4951540;28;123685;-75
2023/01/18 00:28:34;;;;;;;6.33;5.00;;;4.40;92.80;;;4.89;61.71;95769.72;4963703;28;119042;-75
2023/01/18 00:31:01;;;;;;;4.83;3.73;;;4.40;92.80;;;4.91;61.25;95767.41;4966271;28;119052;-75
2023/01/18 00:33:27;;;;;;;10.27;5.43;;;4.50;92.80;;;4.93;60.76;95769.81;4967560;28;123368;-75
2023/01/18 00:35:59;;;;;;;5.90;4.27;;;4.40;92.70;;;4.92;61.32;95769.00;4964900;28;123648;-75
2023/01/18 00:38:27;;;;;;;7.00;4.87;;;4.50;92.70;;;4.91;61.18;95758.41;4965518;28;120200;-75
2023/01/18 00:40:54;;;;;;;6.37;4.77;;;4.50;92.70;;;4.90;61.19;95768.56;4964629;28;119751;-75
2023/01/18 00:43:39;;;;;;;6.70;5.17;;;4.40;92.60;;;4.88;61.02;95768.09;4966260;28;123839;-75
2023/01/18 00:46:08;;;;;;;11.30;5.67;;;4.50;92.90;;;4.85;60.86;95772.34;4964335;28;124584;-75
2023/01/18 00:48:35;;;;;;;7.87;5.47;;;4.40;92.60;;;4.84;61.00;95773.50;4966276;28;119240;-75
2023/01/18 00:51:03;;;;;;;9.17;5.60;;;4.60;92.70;;;4.78;60.99;95774.91;4967170;28;118198;-75
2023/01/18 00:53:29;;;;;;;6.10;4.63;;;4.30;92.60;;;4.77;61.50;95781.50;4968684;28;122726;-75
2023/01/18 00:55:56;;;;;;;7.07;5.20;;;4.40;92.70;;;4.79;61.28;95775.69;4981983;28;123586;-75
2023/01/18 00:58:23;;;;;;;7.07;6.10;;;4.40;92.70;;;4.79;60.86;95779.22;4966041;28;119387;-75
2023/01/18 01:00:52;;;;;;;8.47;6.13;;;4.40;92.70;;;4.79;61.13;95783.91;4951997;28;119530;-75
2023/01/18 01:03:20;;;;;;;8.40;6.20;;;4.30;92.60;;;4.79;61.67;95783.91;4967110;28;124235;-75
2023/01/18 01:08:32;;;;;;;9.60;5.47;;;4.40;92.70;;;4.83;61.45;95777.34;4957359;28;120365;-75
2023/01/18 01:11:11;;;;;;;8.10;5.47;;;4.40;92.80;;;4.84;61.65;95778.97;4966149;28;118886;-75
2023/01/18 01:27:22;;;;;;;9.10;5.80;;;4.40;92.60;;;4.73;60.94;95797.03;4968887;28;124351;-75
2023/01/18 01:29:51;;;;;;;8.70;5.40;;;4.30;92.50;;;4.71;61.36;95798.53;4965496;28;120188;-75
2023/01/18 01:32:17;;;;;;;7.00;5.50;;;4.30;92.60;;;4.71;61.00;95806.72;4966549;28;120314;-75
2023/01/18 01:34:44;;;;;;;7.23;6.03;;;4.30;92.60;;;4.70;61.05;95805.94;4966001;28;124151;-75
2023/01/18 01:37:10;;;;;;;7.27;5.43;;;4.30;92.60;;;4.71;61.30;95807.50;4965498;28;124191;-77
2023/01/18 01:39:37;;;;;;;7.70;5.77;;;4.30;92.60;;;4.71;61.39;95799.31;4966256;28;118479;-75
2023/01/18 01:42:03;;;;;;;9.30;7.27;;;4.30;92.70;;;4.69;61.33;95804.31;4965481;28;119368;-75
2023/01/18 01:44:53;;;;;;;9.47;6.03;;;4.30;92.60;;;4.67;61.27;95806.59;4964630;28;123424;-75
2023/01/18 01:47:29;;;;;;;6.67;5.53;;;4.20;92.70;;;4.64;61.41;95801.84;4906151;28;123454;-75
2023/01/18 01:50:03;;;;;;;6.20;5.40;;;4.20;92.70;;;4.63;61.36;95813.94;4904714;28;119017;-75
2023/01/18 01:52:34;;;;;;;6.97;5.60;;;4.20;92.70;;;4.60;61.52;95811.88;4875856;28;117099;-75
2023/01/18 01:55:27;;;;;;;8.10;6.07;;;4.20;92.70;;;4.58;61.08;95814.16;4903611;28;123747;-75
2023/01/18 01:58:14;;;;;;;7.10;5.10;;;4.10;92.70;;;4.58;61.68;95822.38;4905113;28;123953;-75
2023/01/18 02:00:41;;;;;;;5.77;4.40;;;4.10;92.70;;;4.52;61.50;95818.28;4907538;28;119362;-75
2023/01/18 02:03:11;;;;;;;7.70;5.60;;;4.10;92.80;;;4.55;61.96;95820.34;4907895;28;118874;-75
2023/01/18 02:05:48;;;;;;;6.87;5.33;;;4.10;92.80;;;4.58;61.93;95820.44;4896405;28;124264;-75
2023/01/18 02:08:21;;;;;;;7.87;5.50;;;4.10;92.80;;;4.57;61.30;95824.31;4903370;28;124027;-75
2023/01/18 02:10:48;;;;;;;8.50;5.97;;;4.10;92.80;;;4.56;61.78;95825.44;4906218;28;118869;-76
2023/01/18 02:13:15;;;;;;;7.80;5.30;;;4.10;92.70;;;4.59;61.24;95832.97;4908314;28;119054;-75
2023/01/18 02:16:32;;;;;;;6.43;5.33;;;4.10;92.80;;;4.62;61.21;95839.66;4894637;28;124639;-75
2023/01/18 02:19:41;;;;;;;5.80;4.57;;;4.20;92.80;;;4.57;61.21;95826.25;4853391;29;124127;-75
2023/01/18 02:22:59;;;;;;;8.43;5.30;;;4.10;92.70;;;4.53;61.11;95833.53;4887324;28;120247;-75
2023/01/18 02:26:07;;;;;;;7.40;5.93;;;4.10;92.60;;;4.45;61.02;95832.53;4958530;28;119106;-75
2023/01/18 02:28:36;;;;;;;5.93;4.83;;;4.00;92.60;;;4.39;61.79;95840.19;4946802;28;124031;-75
2023/01/18 02:31:28;;;;;;;7.33;5.20;;;4.00;92.60;;;4.43;61.35;95845.75;4966708;28;122922;-75
2023/01/18 02:34:20;;;;;;;6.20;5.60;;;4.00;92.70;;;4.41;61.36;95848.06;4968502;28;119493;-77
2023/01/18 02:37:05;;;;;;;7.33;6.03;;;4.00;92.70;;;4.39;61.38;95842.91;4968572;28;118729;-75
2023/01/18 02:40:03;;;;;;;10.20;6.80;;;3.90;92.70;;;4.35;61.45;95847.50;4963218;28;124447;-75
2023/01/18 02:48:35;;;;;;;8.30;6.13;;;3.90;92.80;;;4.25;61.61;95856.16;4970013;28;119428;-78
2023/01/18 02:51:05;;;;;;;9.20;6.83;;;3.90;92.80;;;4.18;62.23;95859.47;4966681;28;123994;-75
2023/01/18 02:53:40;;;;;;;11.13;7.23;;;3.80;92.70;;;4.16;62.04;95859.03;4966771;28;123845;-75
2023/01/18 02:56:25;;;;;;;7.83;6.03;;;3.80;92.80;;;4.17;61.93;95862.56;4957603;28;119045;-75
2023/01/18 02:59:04;;;;;;;7.70;6.07;;;3.80;92.80;;;4.16;62.28;95866.41;4968698;28;118656;-75
2023/01/18 03:01:55;;;;;;;8.30;6.30;;;3.80;92.90;;;4.13;62.17;95869.81;4966837;28;123934;-75
2023/01/18 03:04:55;;;;;;;9.00;6.90;;;3.70;92.90;;;4.12;61.63;95871.78;4966741;28;123604;-75
2023/01/18 03:07:42;;;;;;;10.40;6.43;;;3.70;92.90;;;4.08;62.38;95872.78;4953376;28;118464;-75
2023/01/18 03:10:12;;;;;;;8.63;6.97;;;3.70;92.90;;;4.03;62.66;95876.56;4969638;28;118830;-75
2023/01/18 03:12:58;;;;;;;8.90;6.27;;;3.70;92.90;;;4.08;62.12;95870.06;4952810;28;122802;-75
2023/01/18 03:15:49;;;;;;;8.60;5.87;;;3.70;93.00;;;4.10;62.13;95875.97;4967268;28;124866;-75
2023/01/18 03:18:58;;;;;;;8.80;6.10;;;3.70;93.00;;;4.07;61.97;95872.00;4960200;28;120205;-75
2023/01/18 03:21:46;;;;;;;7.67;6.00;;;3.70;93.00;;;4.04;62.37;95869.16;4968312;28;120018;-75
2023/01/18 03:24:15;;;;;;;7.17;5.60;;;3.60;93.00;;;4.01;61.93;95864.38;4952135;28;123422;-75
2023/01/18 03:26:49;;;;;;;8.70;6.33;;;3.60;93.00;;;4.02;62.32;95874.97;4961641;28;123765;-75
2023/01/18 03:35:09;;;;;;;11.20;7.10;;;3.50;93.20;;;3.94;62.29;95879.38;4970432;28;124475;-75
2023/01/18 03:37:48;;;;;;;9.40;6.40;;;3.50;93.20;;;3.94;62.34;95884.06;4953233;28;122730;-75
2023/01/18 03:40:21;;;;;;;10.33;7.77;;;3.50;93.20;;;3.94;62.51;95887.59;4956050;28;118574;-75
2023/01/18 03:43:00;;;;;;;8.87;6.27;;;3.50;93.20;;;3.96;62.33;95888.06;4952176;28;118383;-75
2023/01/18 03:45:34;;;;;;;8.80;6.50;;;3.50;93.30;;;3.98;62.94;95890.44;4967613;28;124493;-75
2023/01/18 03:48:01;;;;;;;9.67;7.00;;;3.50;93.30;;;3.94;62.47;95890.31;4965730;28;123737;-75
2023/01/18 03:50:53;;;;;;;10.07;6.67;;;3.50;93.20;;;3.96;62.41;95896.25;4962464;28;119013;-75
2023/01/18 03:53:33;;;;;;;9.10;6.60;;;3.50;93.20;;;3.98;62.43;95887.72;4978947;28;118927;-75
2023/01/18 03:56:27;;;;;;;8.13;5.67;;;3.50;93.30;;;3.99;62.64;95892.81;4965263;28;123962;-75
2023/01/18 03:58:56;;;;;;;9.67;7.80;;;3.50;93.30;;;3.96;62.58;95898.19;4968848;28;124299;-75
2023/01/18 04:01:24;;;;;;;9.60;7.03;;;3.50;93.40;;;3.94;63.06;95900.44;4968180;28;119452;-75
2023/01/18 04:03:52;;;;;;;11.00;7.73;;;3.50;93.40;;;3.90;62.67;95899.56;4967473;28;119166;-75
2023/01/18 04:06:21;;;;;;;11.43;7.57;;;3.40;93.60;;;3.89;62.74;95901.47;4951107;28;123993;-75
2023/01/18 04:08:52;;;;;;;10.60;7.50;;;3.40;93.60;;;3.91;63.36;95899.19;4967571;28;123783;-75
2023/01/18 04:11:18;;;;;;;10.37;7.70;;;2.90;93.40;;;3.88;62.76;95902.63;4966226;28;120308;-75
2023/01/18 04:13:45;;;;;;;10.53;7.27;;;3.40;93.60;;;3.88;63.30;95907.28;4967111;28;120127;-75
2023/01/18 04:16:11;;;;;;;10.97;7.30;;;3.40;93.60;;;3.92;63.21;95909.00;4966295;28;124248;-75
2023/01/18 04:18:38;;;;;;;10.17;6.57;;;3.40;93.60;;;3.98;63.21;95918.56;4965428;28;123812;-75
2023/01/18 04:21:04;;;;;;;9.20;6.80;;;3.50;93.70;;;4.02;62.98;95923.34;4968046;28;119480;-75
2023/01/18 04:23:31;;;;;;;9.80;7.40;;;3.50;93.70;;;4.04;63.12;95924.59;4967059;28;119272;-75
2023/01/18 04:25:57;;;;;;;9.30;7.10;;;3.70;93.80;;;3.99;62.88;95927.53;4966985;28;123203;-75
2023/01/18 04:28:26;;;;;;;9.13;6.47;;;3.50;93.70;;;3.99;62.84;95930.28;4963220;28;123889;-75
2023/01/18 04:30:56;;;;;;;9.07;6.93;;;3.50;93.70;;;4.03;63.43;95933.94;4952084;28;119799;-75
2023/01/18 04:33:25;;;;;;;10.57;6.73;;;3.50;93.70;;;4.04;62.95;95938.25;4965537;28;118876;-75
2023/01/18 04:35:55;;;;;;;9.03;7.00;;;3.60;93.70;;;4.04;63.14;95935.53;4959149;28;123982;-77
2023/01/18 04:38:22;;;;;;;8.50;6.40;;;3.60;93.70;;;4.04;63.04;95932.78;4966506;28;123736;-75
2023/01/18 04:40:49;;;;;;;11.87;7.67;;;3.60;93.70;;;4.06;63.08;95937.91;4966466;28;119264;-75
2023/01/18 04:43:16;;;;;;;8.70;6.03;;;3.60;93.70;;;4.06;62.75;95941.44;4968404;28;118660;-75
2023/01/18 04:45:45;;;;;;;9.97;6.67;;;3.60;93.70;;;4.08;62.84;95949.28;4967442;28;123934;-75
2023/01/18 04:48:11;;;;;;;9.93;7.00;;;3.60;93.70;;;4.05;62.88;95948.03;4968353;28;123729;-75
2023/01/18 04:50:39;;;;;;;8.20;6.00;;;3.50;93.70;;;4.04;62.63;95957.38;4968866;28;96919;-75
2023/01/18 04:53:05;;;;;;;7.07;5.90;;;3.50;93.70;;;4.03;63.15;95960.44;4967475;28;118751;-75
2023/01/18 04:55:32;;;;;;;9.60;6.30;;;3.50;93.70;;;3.99;63.13;95963.06;4966025;28;124098;-75
2023/01/18 04:57:59;;;;;;;12.55;6.75;;;3.50;93.70;;;3.98;63.27;95961.47;4964574;28;123808;-75
2023/01/18 05:00:26;;;;;;;7.50;6.00;;;3.50;93.70;;;3.95;63.27;95971.13;4965449;28;120815;-75
2023/01/18 05:02:52;;;;;;;7.33;6.43;;;3.50;93.70;;;3.93;63.39;95970.69;4959590;28;120645;-75
2023/01/18 05:05:19;;;;;;;7.00;5.57;;;3.50;93.80;;;3.91;63.49;95978.41;4966064;28;124031;-75
2023/01/18 05:07:45;;;;;;;7.60;5.40;;;3.50;93.80;;;3.92;63.46;95977.28;4965978;28;123737;-75
2023/01/18 05:10:12;;;;;;;8.33;6.30;;;3.50;93.90;;;3.94;63.16;95993.31;4965617;28;119068;-75
2023/01/18 05:12:38;;;;;;;6.90;5.77;;;3.60;93.90;;;3.93;62.68;95998.00;4967565;28;118957;-75
2023/01/18 05:15:05;;;;;;;7.37;5.33;;;3.50;93.80;;;3.91;63.61;96005.72;4965558;28;124188;-75
2023/01/18 05:17:34;;;;;;;12.97;6.47;;;3.50;93.70;;;3.88;63.08;96014.59;4969687;28;123483;-75
2023/01/18 05:20:03;;;;;;;7.73;5.03;;;3.40;93.70;;;3.83;63.27;96023.00;4965510;28;119184;-76
2023/01/18 05:22:31;;;;;;;6.57;4.80;;;3.40;93.70;;;3.82;63.28;96034.28;4966313;28;119049;-75
2023/01/18 05:24:58;;;;;;;7.47;5.20;;;3.40;93.70;;;3.82;63.15;96034.28;4964990;28;125355;-75
2023/01/18 05:27:25;;;;;;;8.30;5.90;;;3.40;93.70;;;3.73;63.09;96037.06;4965811;28;123305;-75
2023/01/18 05:29:51;;;;;;;6.83;4.90;;;3.30;93.80;;;3.67;63.12;96043.88;4964657;28;119040;-75
2023/01/18 05:32:18;;;;;;;5.97;4.97;;;3.20;93.80;;;3.64;63.59;96055.47;4952649;28;120086;-75
2023/01/18 05:34:44;;;;;;;5.30;4.23;;;3.20;93.90;;;3.66;63.29;96058.69;4965063;28;123940;-75
2023/01/18 05:37:12;;;;;;;6.20;4.20;;;3.20;93.90;;;3.65;63.16;96062.53;4965181;28;124006;-75
2023/01/18 05:39:38;;;;;;;7.20;3.20;;;3.20;93.90;;;3.62;63.40;96057.72;4968590;28;119294;-75
2023/01/18 05:42:05;;;;;;;6.70;4.03;;;3.10;93.90;;;3.63;62.85;96059.34;4969756;28;118861;-75
2023/01/18 05:44:31;;;;;;;4.33;3.43;;;3.10;93.80;;;3.61;62.82;96069.81;4968041;28;124533;-75
2023/01/18 05:46:58;;;;;;;4.53;3.50;;;3.20;93.80;;;3.60;63.54;96077.19;4952471;28;126477;-75
2023/01/18 05:49:25;;;;;;;5.47;3.67;;;3.10;93.80;;;3.63;63.25;96075.72;4948890;28;121318;-75
2023/01/18 05:51:51;;;;;;;4.93;3.53;;;3.20;93.90;;;3.61;63.58;96086.97;4948815;28;119608;-75
2023/01/18 05:54:18;;;;;;;8.13;3.60;;;3.20;93.90;;;3.61;63.19;96080.72;4951573;28;123653;-74
2023/01/18 05:56:45;;;;;;;5.77;3.30;;;3.10;93.90;;;3.61;63.71;96094.38;4948494;28;123821;-74
2023/01/18 05:59:13;;;;;;;4.40;3.27;;;3.10;93.90;;;3.59;63.03;96096.63;4946873;28;119392;-75
2023/01/18 06:01:40;;;;;;;4.30;3.23;;;3.10;93.80;;;3.58;63.45;96106.75;4948092;28;118927;-74
2023/01/18 06:04:07;;;;;;;5.10;3.23;;;3.20;93.80;;;3.62;63.28;96106.88;4949726;28;123957;-76
2023/01/18 06:06:36;;;;;;;4.27;3.60;;;3.20;93.80;;;3.65;63.47;96119.84;4951791;28;123434;-75
2023/01/18 06:09:04;;;;;;;3.87;3.23;;;3.20;93.80;;;3.64;63.02;96131.91;4947959;28;119406;-75
2023/01/18 06:11:30;;;;;;;5.50;3.40;;;3.20;93.80;;;3.64;62.90;96131.91;4948308;28;118744;-75
2023/01/18 06:14:00;;;;;;;4.53;4.13;;;3.20;93.80;;;3.65;63.23;96138.97;4948030;28;123141;-75
2023/01/18 06:16:26;;;;;;;4.17;3.27;;;3.20;93.80;;;3.66;63.06;96151.50;4952687;28;123611;-78
2023/01/18 06:18:53;;;;;;;3.90;3.50;;;3.20;93.70;;;3.67;63.29;96153.09;4953432;28;119237;-75
2023/01/18 06:21:20;;;;;;;4.47;3.10;;;3.20;93.80;;;3.70;62.91;96163.34;4951837;28;118941;-76
2023/01/18 06:23:46;;;;;;;3.37;2.77;;;3.30;93.80;;;3.70;63.32;96155.94;4959189;28;124096;-75
2023/01/18 06:26:13;;;;;;;5.13;3.17;;;3.30;93.80;;;3.68;62.69;96171.06;4954723;28;123070;-76
2023/01/18 06:28:58;;;;;;;5.33;3.17;;;3.20;93.70;;;3.67;63.41;96169.47;4938783;28;117183;-75
2023/01/18 06:31:25;;;;;;;4.93;3.50;;;3.20;93.90;;;3.62;63.57;96183.31;4957155;28;119493;-77
2023/01/18 06:33:52;;;;;;;5.30;3.20;;;3.20;94.00;;;3.62;64.21;96177.84;4957468;28;123186;-76
2023/01/18 06:36:18;;;;;;;4.80;3.47;;;3.20;94.00;;;3.61;64.27;96182.53;4954022;28;122893;-81
2023/01/18 06:38:44;;;;;;;6.10;3.13;;;3.20;94.10;;;3.57;63.20;96176.09;4951894;28;120867;-76
2023/01/18 06:41:11;;;;;;;3.33;2.83;;;3.20;94.10;;;3.52;63.95;96179.84;4971489;28;119307;-74
2023/01/18 06:43:37;;;;;;;3.77;3.27;;;3.10;94.00;;;3.48;64.37;96186.31;4952403;28;124126;-75
2023/01/18 06:46:06;;;;;;;6.10;3.33;;;3.10;94.20;;;3.44;64.07;96194.38;4963784;28;124464;-75
2023/01/18 06:48:33;;;;;;;3.87;3.10;;;3.10;94.20;;;3.44;64.08;96201.72;4959129;28;119241;-75
2023/01/18 06:50:59;;;;;;;3.80;3.20;;;3.00;94.20;;;3.44;64.12;96210.75;4971153;28;119295;-75
2023/01/18 06:53:26;;;;;;;5.37;3.70;;;3.00;94.20;;;3.46;64.30;96211.19;4969287;28;124080;-75
2023/01/18 06:56:00;;;;;;;5.30;4.10;;;3.00;94.20;;;3.45;64.17;96223.25;4969704;28;123883;-76
2023/01/18 06:58:29;;;;;;;4.13;3.50;;;3.00;94.20;;;3.43;63.99;96214.56;4970714;28;118416;-74
2023/01/18 07:00:58;;;;;;;5.67;4.20;;;3.00;94.20;;;3.45;64.16;96222.44;4970377;28;119139;-77
2023/01/18 07:03:27;;;;;;;5.33;3.83;;;3.00;94.20;;;3.43;64.09;96225.50;4968504;28;123017;-75
2023/01/18 07:05:55;;;;;;;6.70;4.43;;;3.00;94.20;;;3.40;63.97;96236.28;4970360;28;123544;-74
2023/01/18 07:08:22;;;;;;;10.40;4.67;;;3.00;94.10;;;3.37;63.95;96226.81;4975858;28;119522;-75
2023/01/18 07:10:51;;;;;;;6.67;4.60;;;3.00;94.20;;;3.38;64.38;96238.53;4957254;28;119444;-74
2023/01/18 07:13:19;;;;;;;6.43;4.90;;;3.00;94.20;;;3.39;64.09;96243.66;4969906;28;123925;-74
2023/01/18 07:15:57;;;;;;;7.43;5.00;;;3.00;94.20;;;3.41;64.14;96249.59;4967797;28;123526;-74
2023/01/18 07:18:25;;;;;;;8.10;5.57;;;3.00;94.20;;;3.41;64.01;96252.34;4960204;28;119157;-76
2023/01/18 07:21:05;;;;;;;6.30;5.00;;;3.00;94.20;;;3.42;64.71;96255.88;4981957;28;118618;-76
2023/01/18 07:23:35;;;;;;;9.67;4.60;;;2.90;94.20;;;3.38;64.24;96266.63;4967403;28;123949;-75
2023/01/18 07:26:10;;;;;;;8.30;5.43;;;2.90;94.30;;;3.38;64.27;96266.63;4967852;28;123582;-74
2023/01/18 07:28:37;;;;;;;7.40;5.20;;;2.90;94.30;;;3.40;64.22;96279.94;4961491;28;120224;-74
2023/01/18 07:31:06;;;;;;;6.93;4.83;;;2.90;94.30;;;3.41;64.18;96276.06;4968138;28;119942;-74
2023/01/18 07:33:34;;;;;;;6.30;4.70;;;3.00;94.30;;;3.44;63.88;96287.16;4952880;28;123774;-74
2023/01/18 07:36:06;;;;;;;5.90;4.63;;;3.00;94.30;;;3.44;63.69;96287.16;4967273;28;123870;-74
2023/01/18 07:38:33;;;;;;;5.07;4.47;;;3.00;94.20;;;3.45;63.78;96304.31;4967648;28;119321;-75
2023/01/18 07:41:10;;;;;;;6.10;4.60;;;3.00;94.20;;;3.45;64.31;96302.41;4968200;28;118944;-74
2023/01/18 07:43:36;;;;;;;5.57;4.47;;;3.00;94.20;;;3.44;63.72;96303.53;4969834;28;123921;-74
2023/01/18 07:46:07;;;;;;;7.33;4.90;;;3.00;94.10;;;3.48;64.13;96314.59;4969450;28;123318;-75
2023/01/18 07:48:34;;;;;;;8.40;5.00;;;3.00;94.10;;;3.46;63.97;96312.19;4967182;28;121079;-74
2023/01/18 07:51:04;;;;;;;6.80;5.00;;;3.00;94.00;;;3.44;63.59;96325.38;4967241;28;119002;-74
2023/01/18 07:53:34;;;;;;;7.43;4.73;;;3.00;94.00;;;3.40;63.44;96329.06;4965483;28;123973;-75
2023/01/18 07:56:04;;;;;;;10.57;4.67;;;3.00;94.00;;;3.35;63.51;96319.13;4965478;28;123722;-75
2023/01/18 07:58:30;;;;;;;8.33;5.77;;;2.90;94.00;;;3.32;64.02;96320.56;4966994;28;119027;-75
2023/01/18 08:01:09;;;;;;;8.77;5.20;;;2.90;94.00;;;3.34;63.87;96341.31;4967732;28;119119;-75
2023/01/18 08:03:36;;;;;;;5.97;5.20;;;2.90;94.00;;;3.29;63.53;96342.28;4965347;28;123045;-75
2023/01/18 08:06:06;;;;;;;8.00;5.97;;;3.00;94.00;;;3.24;63.17;96337.78;4967589;28;123702;-75
2023/01/18 08:08:34;;;;;;;6.97;5.33;;;2.80;93.80;;;3.19;63.87;96346.13;4967400;28;119051;-74
2023/01/18 08:11:04;;;;;;;11.30;5.63;;;2.80;93.80;;;3.17;63.30;96350.31;4966654;28;119404;-75
2023/01/18 08:13:32;;;;;;;7.73;5.57;;;2.80;93.80;;;3.13;63.90;96363.81;4967209;28;124771;-74
2023/01/18 08:16:01;;;;;;;8.73;5.23;;;2.80;93.80;;;3.12;63.40;96362.22;4946787;28;123706;-75
2023/01/18 08:18:27;;;;;;;7.77;5.77;;;2.70;93.70;;;3.11;63.55;96368.78;4947241;28;119944;-74
2023/01/18 08:20:54;;;;;;;11.53;5.40;;;2.70;93.80;;;3.08;63.82;96377.63;4931183;28;119541;-74
2023/01/18 08:23:21;;;;;;;6.33;5.70;;;3.00;93.90;;;3.05;63.74;96375.53;4944853;28;124111;-74
2023/01/18 08:25:48;;;;;;;10.50;5.67;;;2.70;93.80;;;3.01;63.59;96377.31;4946614;28;123630;-74
2023/01/18 08:28:15;;;;;;;9.73;5.30;;;2.60;93.80;;;2.96;64.06;96388.41;4947203;28;118311;-74
2023/01/18 08:30:46;;;;;;;8.47;6.20;;;2.60;93.80;;;2.93;64.11;96387.13;4946295;28;118848;-74
2023/01/18 08:33:13;;;;;;;10.23;5.40;;;2.50;93.80;;;2.91;63.53;96404.94;4947193;28;125148;-74
2023/01/18 08:35:45;;;;;;;8.30;4.60;;;2.50;93.80;;;2.92;63.72;96406.53;4946073;28;124258;-75
2023/01/18 08:38:14;;;;;;;8.67;5.23;;;2.50;93.80;;;2.92;63.62;96409.25;4947162;28;119094;-74
2023/01/18 08:40:41;;;;;;;7.43;5.30;;;2.50;93.90;;;2.90;63.52;96419.66;4929022;28;119329;-75
2023/01/18 08:43:10;;;;;;;9.70;5.00;;;2.50;93.90;;;2.87;63.92;96419.22;4946063;28;124051;-74
2023/01/18 08:45:37;;;;;;;8.33;5.87;;;3.90;94.50;;;2.86;64.00;96433.94;4945345;28;123746;-75
2023/01/18 08:48:08;;;;;;;7.03;4.77;;;2.50;93.90;;;2.91;63.77;96435.72;4966755;28;119571;-74
2023/01/18 08:50:35;;;;;;;7.23;5.07;;;2.50;93.90;;;2.89;63.98;96443.41;4963980;28;118913;-74
2023/01/18 08:53:03;;;;;;;5.10;4.40;;;2.50;93.90;;;2.88;63.82;96450.00;4964974;28;124518;-74
2023/01/18 08:55:30;;;;;;;5.40;4.40;;;2.50;93.90;;;2.88;63.98;96450.00;4969336;28;123727;-74
2023/01/18 08:57:57;;;;;;;6.53;5.03;;;2.50;93.90;;;2.90;64.05;96464.09;4969132;28;119318;-74
2023/01/18 09:00:28;;;;;;;7.37;5.00;;;2.50;94.00;;;2.94;64.32;96459.63;4966572;28;118087;-74
2023/01/18 09:02:56;;;;;;;5.80;4.30;;;2.50;94.00;;;2.97;63.72;96464.44;4961262;28;124417;-74
2023/01/18 09:05:26;;;;;;;7.30;4.90;;;3.80;94.50;;;2.98;63.71;96471.50;4965502;28;123517;-74
2023/01/18 09:07:54;;;;;;;6.80;5.43;;;2.60;94.00;;;2.97;63.67;96475.34;4965175;28;120439;-76
2023/01/18 09:10:21;;;;;;;7.70;5.10;;;2.60;94.00;;;3.01;64.06;96481.78;4965796;28;119688;-75
2023/01/18 09:12:48;;;;;;;6.87;4.90;;;2.60;94.00;;;3.06;63.80;96478.06;4964514;28;123946;-75
2023/01/18 09:15:14;;;;;;;7.07;5.30;;;2.60;94.00;;;3.06;63.58;96487.06;4969172;28;123798;-75
2023/01/18 09:17:41;;;;;;;6.80;4.50;;;2.60;94.00;;;3.07;63.69;96499.56;4973113;28;118456;-75
2023/01/18 09:20:10;;;;;;;9.20;5.10;;;2.60;93.90;;;3.06;63.46;96503.44;4969653;28;118996;-75
2023/01/18 09:22:38;;;;;;;8.50;4.90;;;2.60;93.90;;;3.07;64.08;96504.25;4972681;28;123806;-75
2023/01/18 09:25:06;;;;;;;5.70;4.70;;;2.80;94.00;;;3.09;63.89;96505.53;4954216;28;123108;-75
2023/01/18 09:27:33;;;;;;;5.13;4.63;;;2.60;93.90;;;3.12;63.43;96525.09;4949381;28;119273;-75
2023/01/18 09:29:59;;;;;;;12.13;5.10;;;2.60;93.90;;;3.12;63.24;96525.91;4949140;28;119067;-75
2023/01/18 09:32:26;;;;;;;7.00;5.37;;;2.60;93.90;;;3.12;63.50;96533.25;4932799;28;123158;-75
2023/01/18 09:34:53;;;;;;;6.70;4.70;;;2.70;93.90;;;3.12;63.99;96549.63;4933275;28;123142;-76
2023/01/18 09:37:20;;;;;;;7.57;5.27;;;2.70;93.90;;;3.10;63.66;96553.50;4936116;28;118537;-75
2023/01/18 09:39:47;;;;;;;6.83;4.40;;;2.70;93.90;;;3.07;63.26;96548.69;4954383;28;118885;-75
2023/01/18 09:42:24;;;;;;;5.23;4.03;;;2.60;93.80;;;3.13;63.36;96559.44;4941771;28;123655;-75
2023/01/18 09:44:54;;;;;;;5.83;4.47;;;2.70;93.80;;;3.16;63.46;96564.25;4932352;28;122997;-75
2023/01/18 09:47:29;;;;;;;8.03;5.10;;;2.70;93.80;;;3.17;63.31;96560.41;4933659;28;118297;-78
2023/01/18 09:50:09;;;;;;;5.57;4.27;;;2.70;93.80;;;3.19;63.74;96563.63;4947048;28;118965;-75
2023/01/18 09:53:00;;;;;;;9.43;4.53;;;2.80;93.80;;;3.20;63.34;96563.31;4948168;28;124261;-76
2023/01/18 09:55:55;;;;;;;5.83;4.57;;;2.70;93.70;;;3.19;63.19;96564.41;4953677;28;123868;-75
2023/01/18 09:58:46;;;;;;;7.33;4.60;;;2.70;93.70;;;3.18;63.14;96572.94;4952842;28;120819;-75
2023/01/18 10:01:21;;;;;;;7.77;4.50;;;2.70;93.80;;;3.17;63.74;96582.22;4952443;28;119664;-75
2023/01/18 10:03:55;;;;;;;8.17;6.17;;;2.70;93.80;;;3.15;63.05;96590.75;4952269;28;123423;-75
2023/01/18 10:06:44;;;;;;;7.13;4.50;;;2.70;93.80;;;3.13;63.06;96584.78;4949491;28;123550;-74
2023/01/18 10:09:21;;;;;;;6.37;4.37;;;2.70;93.80;;;3.10;63.14;96593.63;4948484;28;119333;-74
2023/01/18 10:12:22;;;;;;;5.53;4.53;;;2.70;93.90;;;3.09;63.64;96598.28;4949185;28;118852;-75
2023/01/18 10:15:06;;;;;;;5.80;4.60;;;2.70;93.90;;;3.09;63.51;96598.28;4949271;28;123989;-75
2023/01/18 10:17:59;;;;;;;6.37;4.30;;;2.70;93.80;;;3.08;63.72;96606.78;4951187;28;123129;-75
2023/01/18 10:24:54;;;;;;;6.20;4.20;;;2.70;93.80;;;3.16;63.32;96613.38;4948056;28;119580;-82
2023/01/18 10:27:52;;;;;;;7.27;4.90;;;2.70;93.80;;;3.17;63.74;96614.97;4941135;28;122440;-78
2023/01/18 10:31:02;;;;;;;6.43;4.77;;;2.80;93.80;;;3.18;63.49;96611.94;4955973;28;123256;-78
2023/01/18 10:33:37;;;;;;;6.13;4.97;;;2.70;93.70;;;3.21;63.28;96621.41;4915772;28;118508;-74
2023/01/18 10:36:16;;;;;;;7.27;5.30;;;2.70;93.70;;;3.25;63.22;96615.00;4914156;28;118978;-78
2023/01/18 10:38:44;;;;;;;10.00;5.53;;;2.80;93.80;;;3.28;63.07;96621.75;4916428;28;124371;-76
2023/01/18 10:41:26;;;;;;;6.53;4.67;;;2.80;93.80;;;3.34;63.31;96625.13;4912893;28;123367;-80
2023/01/18 10:43:54;;;;;;;7.70;4.80;;;2.80;93.80;;;3.35;63.13;96632.19;4912604;28;119344;-76
2023/01/18 10:46:20;;;;;;;7.20;5.60;;;2.90;93.80;;;3.37;62.88;96641.66;4900624;28;119186;-75
2023/01/18 10:48:51;;;;;;;7.83;5.10;;;2.90;93.70;;;3.38;62.97;96637.78;4890782;28;123705;-75
2023/01/18 10:51:34;;;;;;;7.33;4.87;;;2.90;93.70;;;3.42;63.30;96640.72;4908085;28;124100;-75
2023/01/18 10:54:25;;;;;;;9.17;5.43;;;2.90;93.70;;;3.43;63.04;96645.84;4906230;28;120132;-75
2023/01/18 10:57:03;;;;;;;8.43;5.87;;;3.00;93.70;;;3.45;62.68;96646.31;4907041;28;119950;-77
2023/01/18 10:59:40;;;;;;;12.60;5.63;;;3.00;93.60;;;3.50;63.00;96643.44;4890839;28;124204;-75
2023/01/18 11:02:22;;;;;;;7.10;5.30;;;3.00;93.60;;;3.58;62.80;96649.25;4909629;28;123555;-75
2023/01/18 11:04:56;;;;;;;7.80;4.77;;;4.00;94.00;;;3.63;62.33;96660.00;4889472;28;119031;-76
2023/01/18 11:07:28;;;;;;;9.30;4.90;;;3.20;93.60;;;3.66;62.85;96659.38;4891766;28;119330;-75
2023/01/18 11:10:00;;;;;;;9.03;5.37;;;3.20;93.60;;;3.67;62.58;96666.41;4914701;28;123872;-75
2023/01/18 11:12:39;;;;;;;8.57;4.90;;;3.20;93.40;;;3.70;62.63;96665.78;4945026;28;124477;-75
2023/01/18 11:15:12;;;;;;;10.67;5.23;;;3.20;93.40;;;3.71;62.55;96661.94;4949008;28;119271;-75
2023/01/18 11:18:04;;;;;;;8.43;5.50;;;3.20;93.50;;;3.75;62.71;96660.16;4947988;28;118304;-75
2023/01/18 11:20:49;;;;;;;6.23;4.87;;;3.20;93.50;;;3.78;62.44;96666.91;4944672;28;123619;-75